createdAt,value
2019-04-22T00:04:56.104Z,13.38
2019-04-22T00:10:21.180Z,10.90
2019-04-22T00:15:24.767Z,11.68
2019-04-22T00:20:30.178Z,13.43
2019-04-22T00:25:46.018Z,12.40
2019-04-22T00:30:47.086Z,14.18
2019-04-22T00:35:54.526Z,11.15
2019-04-22T00:41:00.873Z,13.03
2019-04-22T00:46:12.920Z,15.53
2019-04-22T00:51:33.608Z,12.40
2019-04-22T00:56:22.095Z,14.05
2019-04-22T01:01:31.976Z,14.35
2019-04-22T01:06:41.367Z,15.08
2019-04-22T01:11:44.881Z,14.55
2019-04-22T01:16:57.829Z,15.83
2019-04-22T01:22:01.184Z,18.10
2019-04-22T01:26:58.254Z,18.30
2019-04-22T01:31:51.067Z,16.32
2019-04-22T01:37:13.773Z,17.75
2019-04-22T01:42:32.783Z,17.77
2019-04-22T01:47:36.733Z,18.90
2019-04-22T01:52:47.616Z,16.90
2019-04-22T01:57:47.640Z,20.52
2019-04-22T02:03:06.839Z,20.70
2019-04-22T02:08:14.606Z,18.98
2019-04-22T02:13:17.108Z,21.60
2019-04-22T02:18:23.191Z,18.13
2019-04-22T02:28:45.827Z,22.93
2019-04-22T02:34:09.351Z,22.85
2019-04-22T02:44:20.300Z,22.42
2019-04-22T02:59:39.836Z,22.85
2019-04-22T03:04:43.959Z,25.27
2019-04-22T03:15:01.472Z,27.10
2019-04-22T03:25:51.494Z,26.07
2019-04-22T03:30:51.088Z,24.43
2019-04-22T03:40:52.710Z,24.97
2019-04-22T03:45:58.833Z,25.82
2019-04-22T03:51:09.262Z,26.02
2019-04-22T03:56:28.628Z,27.40
2019-04-22T04:01:30.157Z,27.73
2019-04-22T04:06:32.030Z,30.00
2019-04-22T04:11:53.880Z,28.05
2019-04-22T04:17:02.371Z,28.53
2019-04-22T04:21:57.614Z,27.98
2019-04-22T04:27:26.456Z,29.60
2019-04-22T04:32:27.329Z,31.55
2019-04-22T04:52:50.834Z,28.60
2019-04-22T05:03:15.566Z,28.35
2019-04-22T05:08:04.413Z,29.83
2019-04-22T05:13:22.961Z,31.97
2019-04-22T05:18:12.605Z,29.77
2019-04-22T05:23:25.560Z,34.63
2019-04-22T05:28:23.906Z,32.90
2019-04-22T05:33:37.749Z,31.23
2019-04-22T05:38:50.130Z,31.70
2019-04-22T05:43:53.258Z,29.95
2019-04-22T05:54:01.319Z,32.35
2019-04-22T06:04:17.076Z,32.85
2019-04-22T06:09:24.838Z,31.70
2019-04-22T06:14:32.844Z,34.18
2019-04-22T06:19:38.006Z,34.45
2019-04-22T06:24:45.047Z,31.48
2019-04-22T06:29:46.169Z,31.97
2019-04-22T06:35:09.443Z,32.53
2019-04-22T06:40:10.961Z,30.65
2019-04-22T06:45:18.867Z,32.08
2019-04-22T06:50:27.749Z,30.52
2019-04-22T06:55:28.681Z,35.80
2019-04-22T07:00:36.678Z,33.70
2019-04-22T07:10:49.147Z,29.87
2019-04-22T07:16:13.328Z,33.25
2019-04-22T07:21:01.400Z,30.55
2019-04-22T07:26:08.874Z,30.80
2019-04-22T07:31:16.167Z,36.42
2019-04-22T07:41:32.862Z,30.35
2019-04-22T07:46:47.130Z,30.02
2019-04-22T07:51:44.472Z,30.23
2019-04-22T07:56:54.908Z,37.20
2019-04-22T08:02:05.974Z,28.80
2019-04-22T08:07:12.633Z,29.12
2019-04-22T08:12:18.746Z,28.25
2019-04-22T08:22:39.898Z,29.98
2019-04-22T08:27:47.137Z,28.47
2019-04-22T08:32:48.894Z,28.38
2019-04-22T08:37:58.918Z,34.75
2019-04-22T08:43:10.332Z,27.65
2019-04-22T08:48:07.555Z,28.20
2019-04-22T08:53:14.575Z,32.63
2019-04-22T09:03:30.369Z,25.97
2019-04-22T09:08:45.597Z,24.23
2019-04-22T09:13:50.650Z,24.55
2019-04-22T09:18:56.158Z,24.60
2019-04-22T09:29:06.626Z,21.80
2019-04-22T09:34:14.027Z,20.60
2019-04-22T09:39:23.043Z,22.32
2019-04-22T09:44:32.717Z,22.80
2019-04-22T09:49:36.884Z,22.70
2019-04-22T09:54:49.519Z,24.00
2019-04-22T09:59:54.156Z,23.50
2019-04-22T10:04:54.058Z,23.25
2019-04-22T10:10:09.013Z,21.93
2019-04-22T10:15:19.533Z,23.90
2019-04-22T10:20:15.097Z,21.35
2019-04-22T10:25:16.745Z,20.23
2019-04-22T10:30:33.586Z,22.27
2019-04-22T10:35:17.232Z,25.32
2019-04-22T10:40:27.969Z,19.87
2019-04-22T10:45:34.471Z,18.67
2019-04-22T10:50:48.765Z,20.23
2019-04-22T10:55:54.382Z,21.60
2019-04-22T11:01:00.629Z,19.45
2019-04-22T11:06:07.331Z,19.15
2019-04-22T11:11:26.226Z,19.85
2019-04-22T11:16:19.487Z,19.62
2019-04-22T11:21:25.763Z,20.50
2019-04-22T11:26:31.916Z,17.77
2019-04-22T11:31:37.077Z,18.32
2019-04-22T11:36:43.095Z,19.10
2019-04-22T11:41:49.845Z,17.05
2019-04-22T11:46:54.798Z,17.62
2019-04-22T11:52:04.761Z,16.75
2019-04-22T11:57:08.776Z,14.87
2019-04-22T12:02:16.132Z,14.40
2019-04-22T12:07:21.300Z,10.90
2019-04-22T12:12:27.832Z,11.68
2019-04-22T12:17:33.877Z,10.75
2019-04-22T12:22:40.951Z,10.05
2019-04-22T12:27:47.291Z,9.53
2019-04-22T12:32:52.722Z,6.87
2019-04-22T12:38:02.654Z,5.80
2019-04-22T12:43:06.685Z,6.92
2019-04-22T12:48:12.829Z,10.03
2019-04-22T12:53:21.675Z,8.38
2019-04-22T12:58:25.545Z,10.13
2019-04-22T13:03:32.014Z,9.05
2019-04-22T13:08:38.144Z,9.23
2019-04-22T13:13:45.295Z,7.28
2019-04-22T13:18:56.512Z,8.95
2019-04-22T13:23:57.458Z,8.65
2019-04-22T13:29:03.214Z,7.92
2019-04-22T13:34:11.758Z,8.78
2019-04-22T13:39:16.714Z,8.65
2019-04-22T13:44:23.019Z,11.40
2019-04-22T13:50:17.836Z,9.15
2019-04-22T13:54:59.623Z,7.87
2019-04-22T13:59:48.131Z,7.00
2019-04-22T14:04:50.520Z,7.92
2019-04-22T14:09:56.104Z,7.47
2019-04-22T14:15:04.303Z,13.28
2019-04-22T14:20:10.906Z,11.95
2019-04-22T14:25:18.681Z,11.78
2019-04-22T14:30:26.253Z,13.13
2019-04-22T14:35:31.884Z,10.70
2019-04-22T14:40:38.584Z,12.10
2019-04-22T14:46:17.754Z,13.65
2019-04-22T14:51:14.837Z,11.95
2019-04-22T14:56:00.178Z,11.90
2019-04-22T15:01:06.818Z,14.40
2019-04-22T15:06:12.582Z,11.28
2019-04-22T15:11:19.343Z,12.58
2019-04-22T15:16:46.938Z,13.38
2019-04-22T15:21:52.580Z,7.67
2019-04-22T15:27:00.550Z,8.00
2019-04-22T15:32:07.578Z,11.60
2019-04-22T15:37:13.858Z,8.68
2019-04-22T15:42:25.732Z,7.62
2019-04-22T15:47:27.358Z,8.05
2019-04-22T15:52:41.689Z,8.00
2019-04-22T15:57:39.857Z,6.83
2019-04-22T16:02:47.687Z,10.10
2019-04-22T16:07:53.082Z,10.40
2019-04-22T16:13:07.452Z,7.85
2019-04-22T16:18:06.813Z,8.20
2019-04-22T16:23:23.636Z,9.55
2019-04-22T16:28:27.036Z,7.70
2019-04-22T16:33:36.009Z,6.97
2019-04-22T16:38:40.616Z,7.50
2019-04-22T16:43:46.955Z,6.28
2019-04-22T16:48:53.705Z,6.42
2019-04-22T16:53:59.995Z,6.75
2019-04-22T16:59:06.644Z,8.78
2019-04-22T17:04:48.618Z,9.23
2019-04-22T17:09:57.652Z,8.40
2019-04-22T17:15:08.064Z,8.68
2019-04-22T17:20:11.212Z,9.23
2019-04-22T17:25:18.151Z,8.00
2019-04-22T17:30:24.369Z,6.40
2019-04-22T17:35:30.128Z,11.15
2019-04-22T17:40:51.033Z,7.87
2019-04-22T17:46:15.075Z,6.55
2019-04-22T17:51:31.504Z,7.08
2019-04-22T17:56:37.495Z,9.53
2019-04-22T18:01:38.273Z,7.47
2019-04-22T18:06:55.198Z,8.40
2019-04-22T18:12:01.087Z,5.78
2019-04-22T18:17:07.080Z,6.67
2019-04-22T18:22:02.568Z,8.48
2019-04-22T18:27:30.433Z,7.40
2019-04-22T18:32:15.414Z,4.58
2019-04-22T18:37:26.613Z,5.92
2019-04-22T18:42:31.642Z,5.28
2019-04-22T18:47:38.775Z,7.60
2019-04-22T18:53:03.662Z,4.78
2019-04-22T18:58:05.404Z,3.80
2019-04-22T19:03:05.335Z,6.17
2019-04-22T19:08:36.671Z,5.42
2019-04-22T19:18:41.861Z,4.45
2019-04-22T19:23:44.926Z,6.40
2019-04-22T19:28:57.230Z,4.67
2019-04-22T19:33:57.623Z,5.33
2019-04-22T19:38:59.017Z,6.17
2019-04-22T19:44:17.675Z,5.30
2019-04-22T19:49:29.132Z,4.42
2019-04-22T19:54:26.178Z,5.55
2019-04-22T19:59:32.282Z,6.62
2019-04-22T20:05:04.362Z,4.30
2019-04-22T20:09:57.376Z,4.35
2019-04-22T20:15:06.634Z,7.65
2019-04-22T20:20:17.444Z,4.10
2019-04-22T20:25:08.657Z,2.70
2019-04-22T20:30:29.285Z,5.53
2019-04-22T20:35:41.859Z,5.17
2019-04-22T20:40:39.845Z,7.20
2019-04-22T20:45:51.172Z,4.28
2019-04-22T20:51:00.424Z,3.35
2019-04-22T20:56:08.408Z,4.05
2019-04-22T21:01:05.260Z,4.58
2019-04-22T21:06:16.473Z,4.83
2019-04-22T21:11:24.885Z,6.67
2019-04-22T21:16:32.863Z,3.58
2019-04-22T21:21:46.690Z,4.87
2019-04-22T21:26:43.803Z,6.80
2019-04-22T21:31:57.865Z,6.33
2019-04-22T21:37:10.483Z,3.12
2019-04-22T21:42:14.347Z,3.50
2019-04-22T21:47:22.403Z,5.22
2019-04-22T21:52:28.218Z,3.52
2019-04-22T21:58:00.435Z,3.05
2019-04-22T22:03:06.966Z,3.67
2019-04-22T22:07:56.061Z,3.02
2019-04-22T22:13:11.195Z,2.58
2019-04-22T22:18:12.926Z,3.22
2019-04-22T22:23:31.538Z,3.55
2019-04-22T22:33:42.262Z,5.05
2019-04-22T22:38:41.923Z,2.92
2019-04-22T22:43:38.791Z,2.62
2019-04-22T22:49:05.335Z,4.25
2019-04-22T22:54:14.739Z,4.53
2019-04-22T22:59:18.108Z,4.30
2019-04-22T23:04:23.130Z,3.30
2019-04-22T23:09:28.924Z,2.52
2019-04-22T23:14:37.182Z,6.17
2019-04-22T23:19:26.067Z,3.77
2019-04-22T23:24:58.521Z,3.17
2019-04-22T23:30:03.437Z,2.12
2019-04-22T23:35:23.108Z,3.37
2019-04-22T23:40:34.335Z,5.45
2019-04-22T23:45:40.304Z,5.47
2019-04-22T23:50:50.959Z,5.25
2019-04-22T23:55:54.325Z,3.95
